sensor_id;sensor_type;location;lat;lon;timestamp;P1;durP1;ratioP1;P2;durP2;ratioP2
68375;SDS011;55318;52.068;5.188;2023-09-30T00:00:54;5.4;;;3.1;;
68375;SDS011;55318;52.068;5.188;2023-09-30T00:04:05;8.2;;;4.3;;
68375;SDS011;55318;52.068;5.188;2023-09-30T00:05:42;5.9;;;3.8;;
68375;SDS011;55318;52.068;5.188;2023-09-30T00:07:17;8.81;;;3.8;;
68375;SDS011;55318;52.068;5.188;2023-09-30T00:10:29;4.8;;;2.8;;
68375;SDS011;55318;52.068;5.188;2023-09-30T00:12:05;9.0;;;3.8;;
68375;SDS011;55318;52.068;5.188;2023-09-30T00:13:42;9.0;;;4.2;;
68375;SDS011;55318;52.068;5.188;2023-09-30T00:16:54;6.9;;;3.4;;
68375;SDS011;55318;52.068;5.188;2023-09-30T00:18:31;5.2;;;3.0;;
68375;SDS011;55318;52.068;5.188;2023-09-30T00:20:07;5.6;;;3.3;;
68375;SDS011;55318;52.068;5.188;2023-09-30T00:21:44;6.6;;;2.8;;
68375;SDS011;55318;52.068;5.188;2023-09-30T00:24:56;6.8;;;3.1;;
68375;SDS011;55318;52.068;5.188;2023-09-30T00:26:33;5.3;;;3.5;;
68375;SDS011;55318;52.068;5.188;2023-09-30T00:28:09;5.3;;;2.9;;
68375;SDS011;55318;52.068;5.188;2023-09-30T00:31:20;6.1;;;2.8;;
68375;SDS011;55318;52.068;5.188;2023-09-30T00:32:56;9.1;;;3.8;;
68375;SDS011;55318;52.068;5.188;2023-09-30T00:34:32;7.2;;;3.5;;
68375;SDS011;55318;52.068;5.188;2023-09-30T00:37:46;6.5;;;3.6;;
68375;SDS011;55318;52.068;5.188;2023-09-30T00:39:22;6.5;;;3.3;;
68375;SDS011;55318;52.068;5.188;2023-09-30T00:40:58;5.7;;;2.7;;
68375;SDS011;55318;52.068;5.188;2023-09-30T00:44:09;7.2;;;3.5;;
68375;SDS011;55318;52.068;5.188;2023-09-30T00:45:46;4.5;;;2.6;;
68375;SDS011;55318;52.068;5.188;2023-09-30T00:47:23;6.9;;;3.3;;
68375;SDS011;55318;52.068;5.188;2023-09-30T00:49:01;5.8;;;3.6;;
68375;SDS011;55318;52.068;5.188;2023-09-30T00:52:13;9.4;;;3.4;;
68375;SDS011;55318;52.068;5.188;2023-09-30T00:53:50;11.0;;;4.3;;
68375;SDS011;55318;52.068;5.188;2023-09-30T00:55:27;5.7;;;3.4;;
68375;SDS011;55318;52.068;5.188;2023-09-30T00:58:40;11.6;;;4.8;;
68375;SDS011;55318;52.068;5.188;2023-09-30T01:00:16;5.4;;;3.6;;
68375;SDS011;55318;52.068;5.188;2023-09-30T01:01:53;7.7;;;3.1;;
68375;SDS011;55318;52.068;5.188;2023-09-30T01:03:32;7.7;;;3.1;;
68375;SDS011;55318;52.068;5.188;2023-09-30T01:08:20;10.0;;;4.0;;
68375;SDS011;55318;52.068;5.188;2023-09-30T01:09:56;4.41;;;3.2;;
68375;SDS011;55318;52.068;5.188;2023-09-30T01:13:10;6.3;;;3.8;;
68375;SDS011;55318;52.068;5.188;2023-09-30T01:14:45;5.4;;;3.1;;
68375;SDS011;55318;52.068;5.188;2023-09-30T01:16:21;7.1;;;3.1;;
68375;SDS011;55318;52.068;5.188;2023-09-30T01:19:32;13.0;;;4.41;;
68375;SDS011;55318;52.068;5.188;2023-09-30T01:21:08;8.1;;;3.5;;
68375;SDS011;55318;52.068;5.188;2023-09-30T01:22:45;11.0;;;4.8;;
68375;SDS011;55318;52.068;5.188;2023-09-30T01:25:56;9.6;;;3.7;;
68375;SDS011;55318;52.068;5.188;2023-09-30T01:27:33;9.21;;;4.41;;
68375;SDS011;55318;52.068;5.188;2023-09-30T01:29:08;5.2;;;3.0;;
68375;SDS011;55318;52.068;5.188;2023-09-30T01:30:45;7.2;;;3.9;;
68375;SDS011;55318;52.068;5.188;2023-09-30T01:33:56;6.0;;;4.2;;
68375;SDS011;55318;52.068;5.188;2023-09-30T01:35:32;7.2;;;4.0;;
68375;SDS011;55318;52.068;5.188;2023-09-30T01:37:07;12.3;;;3.8;;
68375;SDS011;55318;52.068;5.188;2023-09-30T01:40:19;7.5;;;3.8;;
68375;SDS011;55318;52.068;5.188;2023-09-30T01:43:31;9.81;;;3.8;;
68375;SDS011;55318;52.068;5.188;2023-09-30T01:46:44;9.21;;;4.61;;
68375;SDS011;55318;52.068;5.188;2023-09-30T01:48:19;6.5;;;3.8;;
68375;SDS011;55318;52.068;5.188;2023-09-30T01:49:55;7.0;;;4.3;;
68375;SDS011;55318;52.068;5.188;2023-09-30T01:53:08;8.0;;;4.8;;
68375;SDS011;55318;52.068;5.188;2023-09-30T01:54:44;8.71;;;4.3;;
68375;SDS011;55318;52.068;5.188;2023-09-30T01:56:20;7.2;;;3.9;;
68375;SDS011;55318;52.068;5.188;2023-09-30T01:57:56;9.4;;;4.8;;
68375;SDS011;55318;52.068;5.188;2023-09-30T02:01:07;7.7;;;3.5;;
68375;SDS011;55318;52.068;5.188;2023-09-30T02:02:45;8.5;;;4.3;;
68375;SDS011;55318;52.068;5.188;2023-09-30T02:04:20;6.2;;;4.5;;
68375;SDS011;55318;52.068;5.188;2023-09-30T02:07:32;7.5;;;4.41;;
68375;SDS011;55318;52.068;5.188;2023-09-30T02:09:08;11.5;;;5.11;;
68375;SDS011;55318;52.068;5.188;2023-09-30T02:10:43;7.8;;;4.61;;
68375;SDS011;55318;52.068;5.188;2023-09-30T02:13:55;6.6;;;4.5;;
68375;SDS011;55318;52.068;5.188;2023-09-30T02:15:30;12.4;;;5.11;;
68375;SDS011;55318;52.068;5.188;2023-09-30T02:17:06;9.71;;;5.5;;
68375;SDS011;55318;52.068;5.188;2023-09-30T02:20:19;8.4;;;5.2;;
68375;SDS011;55318;52.068;5.188;2023-09-30T02:21:55;8.2;;;4.61;;
68375;SDS011;55318;52.068;5.188;2023-09-30T02:23:31;9.6;;;4.2;;
68375;SDS011;55318;52.068;5.188;2023-09-30T02:25:08;9.21;;;4.8;;
68375;SDS011;55318;52.068;5.188;2023-09-30T02:28:20;9.4;;;5.2;;
68375;SDS011;55318;52.068;5.188;2023-09-30T02:29:56;10.3;;;4.61;;
68375;SDS011;55318;52.068;5.188;2023-09-30T02:31:32;7.0;;;4.8;;
68375;SDS011;55318;52.068;5.188;2023-09-30T02:34:44;8.81;;;5.0;;
68375;SDS011;55318;52.068;5.188;2023-09-30T02:36:19;6.6;;;4.5;;
68375;SDS011;55318;52.068;5.188;2023-09-30T02:37:55;7.8;;;4.3;;
68375;SDS011;55318;52.068;5.188;2023-09-30T02:41:07;12.1;;;4.7;;
68375;SDS011;55318;52.068;5.188;2023-09-30T02:42:43;8.6;;;4.3;;
68375;SDS011;55318;52.068;5.188;2023-09-30T02:44:20;11.1;;;4.91;;
68375;SDS011;55318;52.068;5.188;2023-09-30T02:47:31;9.1;;;5.11;;
68375;SDS011;55318;52.068;5.188;2023-09-30T02:49:08;8.81;;;4.5;;
68375;SDS011;55318;52.068;5.188;2023-09-30T02:50:43;8.81;;;4.91;;
68375;SDS011;55318;52.068;5.188;2023-09-30T02:52:20;6.7;;;5.11;;
68375;SDS011;55318;52.068;5.188;2023-09-30T02:55:32;7.9;;;4.5;;
68375;SDS011;55318;52.068;5.188;2023-09-30T02:57:08;10.8;;;5.4;;
68375;SDS011;55318;52.068;5.188;2023-09-30T02:58:44;11.8;;;5.8;;
68375;SDS011;55318;52.068;5.188;2023-09-30T03:01:57;9.1;;;4.7;;
68375;SDS011;55318;52.068;5.188;2023-09-30T03:03:33;10.9;;;5.5;;
68375;SDS011;55318;52.068;5.188;2023-09-30T03:05:08;7.7;;;4.7;;
68375;SDS011;55318;52.068;5.188;2023-09-30T03:08:21;12.8;;;4.91;;
68375;SDS011;55318;52.068;5.188;2023-09-30T03:09:57;7.3;;;4.3;;
68375;SDS011;55318;52.068;5.188;2023-09-30T03:11:34;10.7;;;5.8;;
68375;SDS011;55318;52.068;5.188;2023-09-30T03:14:46;5.8;;;3.8;;
68375;SDS011;55318;52.068;5.188;2023-09-30T03:17:57;9.31;;;4.3;;
68375;SDS011;55318;52.068;5.188;2023-09-30T03:19:34;7.4;;;4.41;;
68375;SDS011;55318;52.068;5.188;2023-09-30T03:22:50;10.3;;;4.8;;
68375;SDS011;55318;52.068;5.188;2023-09-30T03:24:27;10.7;;;5.0;;
68375;SDS011;55318;52.068;5.188;2023-09-30T03:26:02;7.5;;;4.7;;
68375;SDS011;55318;52.068;5.188;2023-09-30T03:29:14;9.81;;;5.6;;
68375;SDS011;55318;52.068;5.188;2023-09-30T03:30:50;10.7;;;5.3;;
68375;SDS011;55318;52.068;5.188;2023-09-30T03:32:27;7.9;;;4.5;;
68375;SDS011;55318;52.068;5.188;2023-09-30T03:35:40;7.7;;;4.41;;
68375;SDS011;55318;52.068;5.188;2023-09-30T03:37:16;8.5;;;4.61;;
68375;SDS011;55318;52.068;5.188;2023-09-30T03:38:52;10.1;;;5.0;;
68375;SDS011;55318;52.068;5.188;2023-09-30T03:40:28;8.4;;;5.11;;
68375;SDS011;55318;52.068;5.188;2023-09-30T03:43:40;9.21;;;5.0;;
68375;SDS011;55318;52.068;5.188;2023-09-30T03:45:15;9.0;;;4.8;;
68375;SDS011;55318;52.068;5.188;2023-09-30T03:46:52;7.2;;;4.5;;
68375;SDS011;55318;52.068;5.188;2023-09-30T03:50:04;10.7;;;5.8;;
68375;SDS011;55318;52.068;5.188;2023-09-30T03:51:41;7.4;;;4.2;;
68375;SDS011;55318;52.068;5.188;2023-09-30T03:53:18;10.0;;;4.91;;
68375;SDS011;55318;52.068;5.188;2023-09-30T03:56:29;10.0;;;5.4;;
68375;SDS011;55318;52.068;5.188;2023-09-30T03:58:06;7.5;;;4.61;;
68375;SDS011;55318;52.068;5.188;2023-09-30T03:59:41;8.81;;;5.0;;
68375;SDS011;55318;52.068;5.188;2023-09-30T04:02:54;11.4;;;5.11;;
68375;SDS011;55318;52.068;5.188;2023-09-30T04:04:29;8.4;;;4.91;;
68375;SDS011;55318;52.068;5.188;2023-09-30T04:06:05;8.1;;;5.0;;
68375;SDS011;55318;52.068;5.188;2023-09-30T04:07:42;10.5;;;5.7;;
68375;SDS011;55318;52.068;5.188;2023-09-30T04:10:54;7.4;;;4.8;;
68375;SDS011;55318;52.068;5.188;2023-09-30T04:12:30;8.4;;;5.3;;
68375;SDS011;55318;52.068;5.188;2023-09-30T04:14:06;9.21;;;5.7;;
68375;SDS011;55318;52.068;5.188;2023-09-30T04:17:19;8.4;;;4.91;;
68375;SDS011;55318;52.068;5.188;2023-09-30T04:18:54;7.9;;;5.0;;
68375;SDS011;55318;52.068;5.188;2023-09-30T04:20:30;8.9;;;4.91;;
68375;SDS011;55318;52.068;5.188;2023-09-30T04:23:43;9.21;;;5.5;;
68375;SDS011;55318;52.068;5.188;2023-09-30T04:25:18;10.1;;;5.8;;
68375;SDS011;55318;52.068;5.188;2023-09-30T04:26:54;10.5;;;5.4;;
68375;SDS011;55318;52.068;5.188;2023-09-30T04:30:06;9.81;;;5.11;;
68375;SDS011;55318;52.068;5.188;2023-09-30T04:31:42;7.6;;;5.2;;
68375;SDS011;55318;52.068;5.188;2023-09-30T04:33:18;7.6;;;5.2;;
68375;SDS011;55318;52.068;5.188;2023-09-30T04:34:54;9.4;;;5.2;;
68375;SDS011;55318;52.068;5.188;2023-09-30T04:38:05;9.21;;;6.1;;
68375;SDS011;55318;52.068;5.188;2023-09-30T04:39:41;8.31;;;5.8;;
68375;SDS011;55318;52.068;5.188;2023-09-30T04:41:17;7.8;;;4.91;;
68375;SDS011;55318;52.068;5.188;2023-09-30T04:44:29;8.81;;;4.91;;
68375;SDS011;55318;52.068;5.188;2023-09-30T04:46:05;8.5;;;5.2;;
68375;SDS011;55318;52.068;5.188;2023-09-30T04:47:42;8.4;;;5.0;;
68375;SDS011;55318;52.068;5.188;2023-09-30T04:50:54;9.31;;;6.1;;
68375;SDS011;55318;52.068;5.188;2023-09-30T04:52:30;11.1;;;6.1;;
68375;SDS011;55318;52.068;5.188;2023-09-30T04:54:06;9.1;;;5.8;;
68375;SDS011;55318;52.068;5.188;2023-09-30T04:55:43;10.3;;;6.9;;
68375;SDS011;55318;52.068;5.188;2023-09-30T04:58:55;10.8;;;4.91;;
68375;SDS011;55318;52.068;5.188;2023-09-30T05:00:31;9.31;;;5.3;;
68375;SDS011;55318;52.068;5.188;2023-09-30T05:02:06;11.7;;;6.5;;
68375;SDS011;55318;52.068;5.188;2023-09-30T05:05:18;12.6;;;5.9;;
68375;SDS011;55318;52.068;5.188;2023-09-30T05:06:54;11.0;;;5.8;;
68375;SDS011;55318;52.068;5.188;2023-09-30T05:08:30;8.9;;;5.9;;
68375;SDS011;55318;52.068;5.188;2023-09-30T05:11:44;8.5;;;6.2;;
68375;SDS011;55318;52.068;5.188;2023-09-30T05:13:20;10.7;;;6.1;;
68375;SDS011;55318;52.068;5.188;2023-09-30T05:14:56;9.1;;;5.4;;
68375;SDS011;55318;52.068;5.188;2023-09-30T05:18:08;9.5;;;5.5;;
68375;SDS011;55318;52.068;5.188;2023-09-30T05:19:44;11.7;;;6.4;;
68375;SDS011;55318;52.068;5.188;2023-09-30T05:21:21;7.4;;;5.4;;
68375;SDS011;55318;52.068;5.188;2023-09-30T05:22:57;9.1;;;5.6;;
68375;SDS011;55318;52.068;5.188;2023-09-30T05:26:09;10.6;;;5.2;;
68375;SDS011;55318;52.068;5.188;2023-09-30T05:27:45;10.9;;;6.0;;
68375;SDS011;55318;52.068;5.188;2023-09-30T05:29:22;8.4;;;5.7;;
68375;SDS011;55318;52.068;5.188;2023-09-30T05:32:35;9.21;;;5.5;;
68375;SDS011;55318;52.068;5.188;2023-09-30T05:34:11;12.5;;;6.9;;
68375;SDS011;55318;52.068;5.188;2023-09-30T05:35:47;11.6;;;6.3;;
68375;SDS011;55318;52.068;5.188;2023-09-30T05:39:00;11.7;;;6.6;;
68375;SDS011;55318;52.068;5.188;2023-09-30T05:40:37;9.21;;;5.4;;
68375;SDS011;55318;52.068;5.188;2023-09-30T05:42:12;11.9;;;6.8;;
68375;SDS011;55318;52.068;5.188;2023-09-30T05:45:25;10.21;;;6.4;;
68375;SDS011;55318;52.068;5.188;2023-09-30T05:47:03;14.2;;;7.3;;
68375;SDS011;55318;52.068;5.188;2023-09-30T05:48:40;11.7;;;6.2;;
68375;SDS011;55318;52.068;5.188;2023-09-30T05:50:17;11.4;;;6.4;;
68375;SDS011;55318;52.068;5.188;2023-09-30T05:53:30;12.9;;;8.5;;
68375;SDS011;55318;52.068;5.188;2023-09-30T05:55:07;14.3;;;6.8;;
68375;SDS011;55318;52.068;5.188;2023-09-30T05:56:43;17.2;;;8.2;;
68375;SDS011;55318;52.068;5.188;2023-09-30T05:59:56;18.7;;;7.9;;
68375;SDS011;55318;52.068;5.188;2023-09-30T06:01:32;10.9;;;6.4;;
68375;SDS011;55318;52.068;5.188;2023-09-30T06:03:08;14.8;;;7.3;;
68375;SDS011;55318;52.068;5.188;2023-09-30T06:04:45;14.6;;;8.1;;
68375;SDS011;55318;52.068;5.188;2023-09-30T06:07:58;12.5;;;8.0;;
68375;SDS011;55318;52.068;5.188;2023-09-30T06:09:35;13.3;;;8.0;;
68375;SDS011;55318;52.068;5.188;2023-09-30T06:11:15;13.1;;;7.0;;
68375;SDS011;55318;52.068;5.188;2023-09-30T06:14:30;17.3;;;9.1;;
68375;SDS011;55318;52.068;5.188;2023-09-30T06:16:06;14.8;;;7.4;;
68375;SDS011;55318;52.068;5.188;2023-09-30T06:17:42;17.5;;;7.8;;
68375;SDS011;55318;52.068;5.188;2023-09-30T06:20:54;12.4;;;7.8;;
68375;SDS011;55318;52.068;5.188;2023-09-30T06:22:30;17.11;;;9.0;;
68375;SDS011;55318;52.068;5.188;2023-09-30T06:24:06;11.2;;;8.0;;
68375;SDS011;55318;52.068;5.188;2023-09-30T06:25:42;12.2;;;7.9;;
68375;SDS011;55318;52.068;5.188;2023-09-30T06:28:54;12.3;;;7.9;;
68375;SDS011;55318;52.068;5.188;2023-09-30T06:30:30;12.0;;;7.7;;
68375;SDS011;55318;52.068;5.188;2023-09-30T06:32:07;13.0;;;8.5;;
68375;SDS011;55318;52.068;5.188;2023-09-30T06:35:19;13.5;;;8.5;;
68375;SDS011;55318;52.068;5.188;2023-09-30T06:36:55;12.7;;;7.9;;
68375;SDS011;55318;52.068;5.188;2023-09-30T06:38:31;16.7;;;8.4;;
68375;SDS011;55318;52.068;5.188;2023-09-30T06:41:45;18.91;;;9.71;;
68375;SDS011;55318;52.068;5.188;2023-09-30T06:43:21;13.2;;;7.8;;
68375;SDS011;55318;52.068;5.188;2023-09-30T06:44:57;13.6;;;8.4;;
68375;SDS011;55318;52.068;5.188;2023-09-30T06:48:10;11.9;;;7.9;;
68375;SDS011;55318;52.068;5.188;2023-09-30T06:49:47;13.7;;;8.9;;
68375;SDS011;55318;52.068;5.188;2023-09-30T06:51:23;14.1;;;8.31;;
68375;SDS011;55318;52.068;5.188;2023-09-30T06:52:59;12.6;;;8.4;;
68375;SDS011;55318;52.068;5.188;2023-09-30T06:56:11;11.2;;;7.6;;
68375;SDS011;55318;52.068;5.188;2023-09-30T06:57:47;11.6;;;8.2;;
68375;SDS011;55318;52.068;5.188;2023-09-30T06:59:23;14.1;;;7.4;;
68375;SDS011;55318;52.068;5.188;2023-09-30T07:02:35;13.9;;;7.9;;
68375;SDS011;55318;52.068;5.188;2023-09-30T07:04:12;11.5;;;7.0;;
68375;SDS011;55318;52.068;5.188;2023-09-30T07:05:48;10.8;;;6.7;;
68375;SDS011;55318;52.068;5.188;2023-09-30T07:08:59;13.8;;;8.4;;
68375;SDS011;55318;52.068;5.188;2023-09-30T07:10:35;14.7;;;7.9;;
68375;SDS011;55318;52.068;5.188;2023-09-30T07:12:11;13.6;;;7.6;;
68375;SDS011;55318;52.068;5.188;2023-09-30T07:13:47;14.6;;;7.8;;
68375;SDS011;55318;52.068;5.188;2023-09-30T07:16:59;11.9;;;7.3;;
68375;SDS011;55318;52.068;5.188;2023-09-30T07:18:35;12.3;;;7.7;;
68375;SDS011;55318;52.068;5.188;2023-09-30T07:20:12;15.3;;;8.0;;
68375;SDS011;55318;52.068;5.188;2023-09-30T07:23:24;12.7;;;8.31;;
68375;SDS011;55318;52.068;5.188;2023-09-30T07:25:00;14.8;;;7.8;;
68375;SDS011;55318;52.068;5.188;2023-09-30T07:26:36;12.6;;;7.7;;
68375;SDS011;55318;52.068;5.188;2023-09-30T07:29:48;13.3;;;7.6;;
68375;SDS011;55318;52.068;5.188;2023-09-30T07:31:24;13.6;;;7.8;;
68375;SDS011;55318;52.068;5.188;2023-09-30T07:33:00;10.7;;;6.9;;
68375;SDS011;55318;52.068;5.188;2023-09-30T07:36:13;10.8;;;7.1;;
68375;SDS011;55318;52.068;5.188;2023-09-30T07:37:50;10.3;;;7.4;;
68375;SDS011;55318;52.068;5.188;2023-09-30T07:39:26;12.1;;;7.3;;
68375;SDS011;55318;52.068;5.188;2023-09-30T07:41:02;11.5;;;6.6;;
68375;SDS011;55318;52.068;5.188;2023-09-30T07:44:14;13.0;;;8.1;;
68375;SDS011;55318;52.068;5.188;2023-09-30T07:45:50;13.9;;;7.5;;
68375;SDS011;55318;52.068;5.188;2023-09-30T07:47:26;11.1;;;7.5;;
68375;SDS011;55318;52.068;5.188;2023-09-30T07:52:14;10.9;;;7.0;;
68375;SDS011;55318;52.068;5.188;2023-09-30T07:53:51;11.6;;;8.0;;
68375;SDS011;55318;52.068;5.188;2023-09-30T07:57:03;10.1;;;6.8;;
68375;SDS011;55318;52.068;5.188;2023-09-30T07:58:39;10.6;;;6.2;;
68375;SDS011;55318;52.068;5.188;2023-09-30T08:00:15;12.3;;;6.4;;
68375;SDS011;55318;52.068;5.188;2023-09-30T08:03:28;12.1;;;7.4;;
68375;SDS011;55318;52.068;5.188;2023-09-30T08:05:05;11.0;;;7.0;;
68375;SDS011;55318;52.068;5.188;2023-09-30T08:06:42;16.61;;;6.5;;
68375;SDS011;55318;52.068;5.188;2023-09-30T08:08:18;15.0;;;7.1;;
68375;SDS011;55318;52.068;5.188;2023-09-30T08:11:31;11.4;;;7.0;;
68375;SDS011;55318;52.068;5.188;2023-09-30T08:13:07;11.6;;;5.4;;
68375;SDS011;55318;52.068;5.188;2023-09-30T08:14:43;10.4;;;6.5;;
68375;SDS011;55318;52.068;5.188;2023-09-30T08:17:55;11.3;;;6.2;;
68375;SDS011;55318;52.068;5.188;2023-09-30T08:19:31;9.6;;;5.5;;
68375;SDS011;55318;52.068;5.188;2023-09-30T08:21:08;11.4;;;6.2;;
68375;SDS011;55318;52.068;5.188;2023-09-30T08:24:20;9.4;;;6.1;;
68375;SDS011;55318;52.068;5.188;2023-09-30T08:25:58;9.9;;;6.8;;
68375;SDS011;55318;52.068;5.188;2023-09-30T08:27:34;9.4;;;5.4;;
68375;SDS011;55318;52.068;5.188;2023-09-30T08:29:12;9.71;;;4.8;;
68375;SDS011;55318;52.068;5.188;2023-09-30T08:32:23;12.6;;;5.6;;
68375;SDS011;55318;52.068;5.188;2023-09-30T08:34:00;9.6;;;6.0;;
68375;SDS011;55318;52.068;5.188;2023-09-30T08:35:36;11.7;;;6.8;;
68375;SDS011;55318;52.068;5.188;2023-09-30T08:38:49;11.5;;;5.5;;
68375;SDS011;55318;52.068;5.188;2023-09-30T08:40:25;11.0;;;6.1;;
68375;SDS011;55318;52.068;5.188;2023-09-30T08:42:02;12.1;;;6.1;;
68375;SDS011;55318;52.068;5.188;2023-09-30T08:45:16;10.6;;;5.0;;
68375;SDS011;55318;52.068;5.188;2023-09-30T08:46:53;11.3;;;7.0;;
68375;SDS011;55318;52.068;5.188;2023-09-30T08:48:31;11.3;;;7.0;;
68375;SDS011;55318;52.068;5.188;2023-09-30T08:50:08;11.1;;;6.4;;
68375;SDS011;55318;52.068;5.188;2023-09-30T08:53:25;10.5;;;5.8;;
68375;SDS011;55318;52.068;5.188;2023-09-30T08:55:02;11.7;;;6.2;;
68375;SDS011;55318;52.068;5.188;2023-09-30T08:56:37;11.8;;;4.91;;
68375;SDS011;55318;52.068;5.188;2023-09-30T08:59:59;14.4;;;5.5;;
68375;SDS011;55318;52.068;5.188;2023-09-30T09:01:36;7.8;;;4.8;;
68375;SDS011;55318;52.068;5.188;2023-09-30T09:03:15;11.4;;;6.1;;
68375;SDS011;55318;52.068;5.188;2023-09-30T09:04:51;7.7;;;5.3;;
68375;SDS011;55318;52.068;5.188;2023-09-30T09:08:04;11.6;;;6.0;;
68375;SDS011;55318;52.068;5.188;2023-09-30T09:09:39;12.7;;;6.3;;
68375;SDS011;55318;52.068;5.188;2023-09-30T09:11:16;9.9;;;5.11;;
68375;SDS011;55318;52.068;5.188;2023-09-30T09:14:36;8.0;;;6.0;;
68375;SDS011;55318;52.068;5.188;2023-09-30T09:16:13;8.4;;;5.11;;
68375;SDS011;55318;52.068;5.188;2023-09-30T09:17:49;9.0;;;4.91;;
68375;SDS011;55318;52.068;5.188;2023-09-30T09:19:25;10.3;;;4.3;;
68375;SDS011;55318;52.068;5.188;2023-09-30T09:22:47;11.6;;;5.4;;
68375;SDS011;55318;52.068;5.188;2023-09-30T09:24:28;15.0;;;6.0;;
68375;SDS011;55318;52.068;5.188;2023-09-30T09:26:05;10.8;;;5.0;;
68375;SDS011;55318;52.068;5.188;2023-09-30T09:27:41;7.7;;;4.41;;
68375;SDS011;55318;52.068;5.188;2023-09-30T09:31:01;7.7;;;4.5;;
68375;SDS011;55318;52.068;5.188;2023-09-30T09:32:37;10.1;;;4.91;;
68375;SDS011;55318;52.068;5.188;2023-09-30T09:34:14;10.21;;;5.3;;
68375;SDS011;55318;52.068;5.188;2023-09-30T09:37:26;9.1;;;3.8;;
68375;SDS011;55318;52.068;5.188;2023-09-30T09:39:02;7.7;;;3.9;;
68375;SDS011;55318;52.068;5.188;2023-09-30T09:40:38;7.5;;;4.2;;
68375;SDS011;55318;52.068;5.188;2023-09-30T09:43:59;9.21;;;4.91;;
68375;SDS011;55318;52.068;5.188;2023-09-30T09:45:36;14.9;;;5.3;;
68375;SDS011;55318;52.068;5.188;2023-09-30T09:47:12;8.31;;;5.8;;
68375;SDS011;55318;52.068;5.188;2023-09-30T09:48:50;7.3;;;4.2;;
68375;SDS011;55318;52.068;5.188;2023-09-30T09:52:02;8.2;;;4.0;;
68375;SDS011;55318;52.068;5.188;2023-09-30T09:53:40;9.21;;;4.0;;
68375;SDS011;55318;52.068;5.188;2023-09-30T09:55:17;7.0;;;4.0;;
68375;SDS011;55318;52.068;5.188;2023-09-30T09:58:36;8.71;;;4.1;;
68375;SDS011;55318;52.068;5.188;2023-09-30T10:00:12;5.2;;;3.4;;
68375;SDS011;55318;52.068;5.188;2023-09-30T10:01:51;7.4;;;3.7;;
68375;SDS011;55318;52.068;5.188;2023-09-30T10:03:27;9.1;;;3.6;;
68375;SDS011;55318;52.068;5.188;2023-09-30T10:06:40;7.4;;;3.9;;
68375;SDS011;55318;52.068;5.188;2023-09-30T10:08:20;7.0;;;3.7;;
68375;SDS011;55318;52.068;5.188;2023-09-30T10:10:05;7.5;;;3.8;;
68375;SDS011;55318;52.068;5.188;2023-09-30T10:11:56;4.8;;;2.4;;
68375;SDS011;55318;52.068;5.188;2023-09-30T10:15:41;11.2;;;3.8;;
68375;SDS011;55318;52.068;5.188;2023-09-30T10:17:18;6.1;;;3.3;;
68375;SDS011;55318;52.068;5.188;2023-09-30T10:19:06;10.1;;;4.2;;
68375;SDS011;55318;52.068;5.188;2023-09-30T10:20:43;10.3;;;4.0;;
68375;SDS011;55318;52.068;5.188;2023-09-30T10:22:21;5.8;;;2.7;;
68375;SDS011;55318;52.068;5.188;2023-09-30T10:26:19;5.8;;;2.7;;
68375;SDS011;55318;52.068;5.188;2023-09-30T10:27:55;5.3;;;3.0;;
68375;SDS011;55318;52.068;5.188;2023-09-30T10:29:39;6.8;;;3.0;;
68375;SDS011;55318;52.068;5.188;2023-09-30T10:31:16;15.9;;;4.8;;
68375;SDS011;55318;52.068;5.188;2023-09-30T10:33:08;8.2;;;3.3;;
68375;SDS011;55318;52.068;5.188;2023-09-30T10:34:47;9.71;;;3.6;;
68375;SDS011;55318;52.068;5.188;2023-09-30T10:38:36;8.1;;;3.8;;
68375;SDS011;55318;52.068;5.188;2023-09-30T10:40:25;7.8;;;3.5;;
68375;SDS011;55318;52.068;5.188;2023-09-30T10:42:02;7.7;;;3.8;;
68375;SDS011;55318;52.068;5.188;2023-09-30T10:43:39;6.8;;;3.6;;
68375;SDS011;55318;52.068;5.188;2023-09-30T10:45:48;5.3;;;2.9;;
68375;SDS011;55318;52.068;5.188;2023-09-30T10:47:39;7.2;;;2.31;;
68375;SDS011;55318;52.068;5.188;2023-09-30T10:51:20;5.9;;;3.1;;
68375;SDS011;55318;52.068;5.188;2023-09-30T10:53:00;7.3;;;3.0;;
68375;SDS011;55318;52.068;5.188;2023-09-30T10:54:39;6.2;;;3.2;;
68375;SDS011;55318;52.068;5.188;2023-09-30T10:56:15;9.0;;;3.9;;
68375;SDS011;55318;52.068;5.188;2023-09-30T10:57:51;11.7;;;3.8;;
68375;SDS011;55318;52.068;5.188;2023-09-30T11:01:04;5.5;;;3.0;;
68375;SDS011;55318;52.068;5.188;2023-09-30T11:02:48;5.5;;;3.0;;
68375;SDS011;55318;52.068;5.188;2023-09-30T11:04:25;9.6;;;2.7;;
68375;SDS011;55318;52.068;5.188;2023-09-30T11:06:01;6.9;;;3.0;;
68375;SDS011;55318;52.068;5.188;2023-09-30T11:09:15;8.1;;;3.3;;
68375;SDS011;55318;52.068;5.188;2023-09-30T11:10:52;5.8;;;2.9;;
68375;SDS011;55318;52.068;5.188;2023-09-30T11:12:28;6.3;;;2.9;;
68375;SDS011;55318;52.068;5.188;2023-09-30T11:15:59;5.8;;;2.7;;
68375;SDS011;55318;52.068;5.188;2023-09-30T11:17:36;6.4;;;2.8;;
68375;SDS011;55318;52.068;5.188;2023-09-30T11:19:12;4.7;;;2.5;;
68375;SDS011;55318;52.068;5.188;2023-09-30T11:20:48;6.3;;;2.1;;
68375;SDS011;55318;52.068;5.188;2023-09-30T11:24:00;4.1;;;1.8;;
68375;SDS011;55318;52.068;5.188;2023-09-30T11:25:36;3.8;;;1.9;;
68375;SDS011;55318;52.068;5.188;2023-09-30T11:27:13;3.7;;;1.9;;
68375;SDS011;55318;52.068;5.188;2023-09-30T11:30:57;4.3;;;2.0;;
68375;SDS011;55318;52.068;5.188;2023-09-30T11:32:35;4.5;;;1.3;;
68375;SDS011;55318;52.068;5.188;2023-09-30T11:34:11;6.4;;;2.1;;
68375;SDS011;55318;52.068;5.188;2023-09-30T11:35:55;4.91;;;1.4;;
68375;SDS011;55318;52.068;5.188;2023-09-30T11:37:32;3.5;;;1.6;;
68375;SDS011;55318;52.068;5.188;2023-09-30T11:40:57;7.9;;;2.31;;
68375;SDS011;55318;52.068;5.188;2023-09-30T11:42:33;7.6;;;2.1;;
68375;SDS011;55318;52.068;5.188;2023-09-30T11:44:11;6.2;;;2.4;;
68375;SDS011;55318;52.068;5.188;2023-09-30T11:45:48;3.5;;;1.9;;
68375;SDS011;55318;52.068;5.188;2023-09-30T11:49:07;4.2;;;1.6;;
68375;SDS011;55318;52.068;5.188;2023-09-30T11:50:45;3.5;;;1.2;;
68375;SDS011;55318;52.068;5.188;2023-09-30T11:52:25;4.41;;;1.6;;
68375;SDS011;55318;52.068;5.188;2023-09-30T11:55:39;4.91;;;2.0;;
68375;SDS011;55318;52.068;5.188;2023-09-30T11:57:16;4.3;;;2.5;;
68375;SDS011;55318;52.068;5.188;2023-09-30T11:58:53;3.3;;;1.6;;
68375;SDS011;55318;52.068;5.188;2023-09-30T12:00:29;3.7;;;1.7;;
68375;SDS011;55318;52.068;5.188;2023-09-30T12:03:41;6.2;;;1.9;;
68375;SDS011;55318;52.068;5.188;2023-09-30T12:05:17;4.8;;;2.5;;
68375;SDS011;55318;52.068;5.188;2023-09-30T12:06:54;3.7;;;2.21;;
68375;SDS011;55318;52.068;5.188;2023-09-30T12:10:06;6.8;;;2.4;;
68375;SDS011;55318;52.068;5.188;2023-09-30T12:11:43;5.6;;;1.8;;
68375;SDS011;55318;52.068;5.188;2023-09-30T12:13:19;3.7;;;1.4;;
68375;SDS011;55318;52.068;5.188;2023-09-30T12:16:32;4.7;;;1.7;;
68375;SDS011;55318;52.068;5.188;2023-09-30T12:18:08;6.7;;;2.0;;
68375;SDS011;55318;52.068;5.188;2023-09-30T12:19:45;3.1;;;1.8;;
68375;SDS011;55318;52.068;5.188;2023-09-30T12:21:21;6.5;;;2.7;;
68375;SDS011;55318;52.068;5.188;2023-09-30T12:24:33;4.3;;;1.6;;
68375;SDS011;55318;52.068;5.188;2023-09-30T12:26:09;3.3;;;1.8;;
68375;SDS011;55318;52.068;5.188;2023-09-30T12:27:46;4.7;;;2.31;;
68375;SDS011;55318;52.068;5.188;2023-09-30T12:30:59;5.8;;;2.8;;
68375;SDS011;55318;52.068;5.188;2023-09-30T12:32:36;3.5;;;2.1;;
68375;SDS011;55318;52.068;5.188;2023-09-30T12:34:12;6.6;;;2.9;;
68375;SDS011;55318;52.068;5.188;2023-09-30T12:37:24;7.2;;;2.7;;
68375;SDS011;55318;52.068;5.188;2023-09-30T12:39:01;9.1;;;3.6;;
68375;SDS011;55318;52.068;5.188;2023-09-30T12:40:37;6.1;;;3.1;;
68375;SDS011;55318;52.068;5.188;2023-09-30T12:43:49;6.8;;;3.0;;
68375;SDS011;55318;52.068;5.188;2023-09-30T12:45:25;6.1;;;2.6;;
68375;SDS011;55318;52.068;5.188;2023-09-30T12:47:01;5.7;;;2.5;;
68375;SDS011;55318;52.068;5.188;2023-09-30T12:48:37;9.21;;;3.1;;
68375;SDS011;55318;52.068;5.188;2023-09-30T12:51:50;3.8;;;2.5;;
68375;SDS011;55318;52.068;5.188;2023-09-30T12:53:27;5.9;;;3.2;;
68375;SDS011;55318;52.068;5.188;2023-09-30T12:55:03;5.8;;;3.1;;
68375;SDS011;55318;52.068;5.188;2023-09-30T12:58:16;6.6;;;2.5;;
68375;SDS011;55318;52.068;5.188;2023-09-30T12:59:53;8.1;;;2.8;;
68375;SDS011;55318;52.068;5.188;2023-09-30T13:01:29;5.3;;;2.21;;